sensor_id;sensor_type;location;lat;lon;timestamp;pressure;altitude;pressure_sealevel;temperature;humidity
68669;BME280;55652;49.454;7.798;2022-07-22T04:26:31;99030.38;;;27.66;47.19
68669;BME280;55652;49.454;7.798;2022-07-22T04:28:57;99030.81;;;27.84;46.63
68669;BME280;55652;49.454;7.798;2022-07-22T04:31:22;99026.84;;;28.00;46.53
68669;BME280;55652;49.454;7.798;2022-07-22T04:33:47;99032.22;;;28.16;49.05
68669;BME280;55652;49.454;7.798;2022-07-22T04:36:13;99029.63;;;28.29;45.92
68669;BME280;55652;49.454;7.798;2022-07-22T04:38:38;99029.84;;;28.43;45.60
68669;BME280;55652;49.454;7.798;2022-07-22T04:41:03;99032.78;;;28.52;45.45
68669;BME280;55652;49.454;7.798;2022-07-22T04:43:29;99026.94;;;28.59;45.01
68669;BME280;55652;49.454;7.798;2022-07-22T04:45:55;99032.91;;;28.66;44.92
68669;BME280;55652;49.454;7.798;2022-07-22T04:48:20;99032.34;;;28.69;44.76
68669;BME280;55652;49.454;7.798;2022-07-22T04:50:46;99035.03;;;28.74;44.96
68669;BME280;55652;49.454;7.798;2022-07-22T04:53:11;99030.81;;;28.82;44.80
68669;BME280;55652;49.454;7.798;2022-07-22T04:55:37;99029.97;;;28.86;44.66
68669;BME280;55652;49.454;7.798;2022-07-22T04:58:02;99029.91;;;28.91;44.58
68669;BME280;55652;49.454;7.798;2022-07-22T05:00:27;99029.84;;;28.96;44.37
68669;BME280;55652;49.454;7.798;2022-07-22T05:02:53;99035.00;;;29.03;44.26
68669;BME280;55652;49.454;7.798;2022-07-22T05:05:19;99039.41;;;29.04;44.10
68669;BME280;55652;49.454;7.798;2022-07-22T05:07:44;99031.41;;;29.08;44.32
68669;BME280;55652;49.454;7.798;2022-07-22T05:10:09;99030.75;;;29.16;43.95
68669;BME280;55652;49.454;7.798;2022-07-22T05:12:35;99030.16;;;29.19;44.02
68669;BME280;55652;49.454;7.798;2022-07-22T05:15:01;99024.66;;;29.19;44.13
68669;BME280;55652;49.454;7.798;2022-07-22T05:17:27;99023.53;;;29.20;44.04
68669;BME280;55652;49.454;7.798;2022-07-22T05:19:53;99018.78;;;29.26;44.09
68669;BME280;55652;49.454;7.798;2022-07-22T05:22:18;99014.91;;;29.27;43.90
68669;BME280;55652;49.454;7.798;2022-07-22T05:24:43;99026.16;;;29.30;43.87
68669;BME280;55652;49.454;7.798;2022-07-22T05:27:09;99018.13;;;29.34;43.78
68669;BME280;55652;49.454;7.798;2022-07-22T05:29:34;99019.47;;;29.36;43.73
68669;BME280;55652;49.454;7.798;2022-07-22T05:31:59;99013.38;;;29.39;43.78
68669;BME280;55652;49.454;7.798;2022-07-22T05:34:25;99014.47;;;29.38;43.72
68669;BME280;55652;49.454;7.798;2022-07-22T05:36:50;99021.56;;;29.45;43.59
68669;BME280;55652;49.454;7.798;2022-07-22T05:39:15;99020.72;;;29.44;43.56
68669;BME280;55652;49.454;7.798;2022-07-22T05:41:41;99025.41;;;29.44;43.59
68669;BME280;55652;49.454;7.798;2022-07-22T05:44:06;99018.28;;;29.42;43.53
68669;BME280;55652;49.454;7.798;2022-07-22T05:46:31;99013.00;;;29.46;43.47
68669;BME280;55652;49.454;7.798;2022-07-22T05:48:57;99016.50;;;29.52;43.30
68669;BME280;55652;49.454;7.798;2022-07-22T05:51:23;99016.00;;;29.50;43.30
68669;BME280;55652;49.454;7.798;2022-07-22T05:53:49;99010.50;;;29.50;43.39
68669;BME280;55652;49.454;7.798;2022-07-22T05:56:14;99012.03;;;29.56;43.19
68669;BME280;55652;49.454;7.798;2022-07-22T05:58:40;99014.59;;;29.52;43.28
68669;BME280;55652;49.454;7.798;2022-07-22T06:01:07;99013.19;;;29.55;43.20
68669;BME280;55652;49.454;7.798;2022-07-22T06:03:33;99005.94;;;29.59;43.07
68669;BME280;55652;49.454;7.798;2022-07-22T06:05:58;99013.59;;;29.62;43.04
68669;BME280;55652;49.454;7.798;2022-07-22T06:08:23;99013.06;;;29.60;43.08
68669;BME280;55652;49.454;7.798;2022-07-22T06:10:49;99012.78;;;29.61;43.09
68669;BME280;55652;49.454;7.798;2022-07-22T06:13:14;99021.06;;;29.61;43.09
68669;BME280;55652;49.454;7.798;2022-07-22T06:15:40;99021.53;;;29.69;42.89
68669;BME280;55652;49.454;7.798;2022-07-22T06:18:05;99018.78;;;29.69;43.02
68669;BME280;55652;49.454;7.798;2022-07-22T06:20:31;99021.28;;;29.65;42.93
68669;BME280;55652;49.454;7.798;2022-07-22T06:22:56;99015.44;;;29.72;42.72
68669;BME280;55652;49.454;7.798;2022-07-22T06:25:21;99022.94;;;29.66;42.95
68669;BME280;55652;49.454;7.798;2022-07-22T06:27:47;99016.03;;;29.69;42.91
68669;BME280;55652;49.454;7.798;2022-07-22T06:30:12;99016.25;;;29.72;42.75
68669;BME280;55652;49.454;7.798;2022-07-22T06:32:38;99021.47;;;29.74;42.76
68669;BME280;55652;49.454;7.798;2022-07-22T06:35:03;99016.25;;;29.72;44.83
68669;BME280;55652;49.454;7.798;2022-07-22T06:37:29;99016.25;;;29.72;43.65
68669;BME280;55652;49.454;7.798;2022-07-22T11:57:15;98763.59;;;28.02;51.50
68669;BME280;55652;49.454;7.798;2022-07-22T11:59:41;98758.53;;;28.15;49.32
68669;BME280;55652;49.454;7.798;2022-07-22T12:02:08;98755.34;;;28.26;48.32
68669;BME280;55652;49.454;7.798;2022-07-22T12:04:35;98758.50;;;28.39;47.69
68669;BME280;55652;49.454;7.798;2022-07-22T12:07:02;98752.91;;;28.49;46.95
68669;BME280;55652;49.454;7.798;2022-07-22T12:09:33;98749.69;;;28.61;46.33
68669;BME280;55652;49.454;7.798;2022-07-22T12:11:59;98739.66;;;28.70;46.15
68669;BME280;55652;49.454;7.798;2022-07-22T12:14:27;98729.63;;;28.79;45.80
68669;BME280;55652;49.454;7.798;2022-07-22T12:16:59;98744.03;;;28.90;45.79
68669;BME280;55652;49.454;7.798;2022-07-22T12:19:26;98742.53;;;28.97;45.50
68669;BME280;55652;49.454;7.798;2022-07-22T12:21:56;98738.91;;;29.02;45.60
68669;BME280;55652;49.454;7.798;2022-07-22T12:26:58;98719.69;;;29.16;45.18
68669;BME280;55652;49.454;7.798;2022-07-22T12:32:04;98709.03;;;29.28;44.55
68669;BME280;55652;49.454;7.798;2022-07-22T12:34:56;98703.72;;;29.32;44.58
68669;BME280;55652;49.454;7.798;2022-07-22T12:40:09;98704.44;;;29.37;44.28
68669;BME280;55652;49.454;7.798;2022-07-22T12:42:43;98702.41;;;29.43;44.02
68669;BME280;55652;49.454;7.798;2022-07-22T12:47:51;98703.94;;;29.49;43.61
68669;BME280;55652;49.454;7.798;2022-07-22T12:52:46;98694.97;;;29.57;43.56
68669;BME280;55652;49.454;7.798;2022-07-22T12:55:12;98702.13;;;29.58;43.86
68669;BME280;55652;49.454;7.798;2022-07-22T12:57:37;98700.13;;;29.64;44.85
68669;BME280;55652;49.454;7.798;2022-07-22T13:00:03;98702.97;;;29.73;45.44
68669;BME280;55652;49.454;7.798;2022-07-22T13:02:29;98694.63;;;29.78;47.17
68669;BME280;55652;49.454;7.798;2022-07-22T13:04:55;98684.81;;;29.85;45.33
68669;BME280;55652;49.454;7.798;2022-07-22T13:07:20;98685.22;;;29.93;45.43
68669;BME280;55652;49.454;7.798;2022-07-22T13:09:45;98685.41;;;29.96;44.96
68669;BME280;55652;49.454;7.798;2022-07-22T13:12:11;98674.72;;;29.95;45.39
68669;BME280;55652;49.454;7.798;2022-07-22T13:14:36;98676.88;;;29.98;45.78
68669;BME280;55652;49.454;7.798;2022-07-22T13:17:03;98666.66;;;29.98;47.98
68669;BME280;55652;49.454;7.798;2022-07-22T13:19:28;98670.09;;;30.04;45.48
68669;BME280;55652;49.454;7.798;2022-07-22T13:21:53;98661.84;;;30.04;47.45
68669;BME280;55652;49.454;7.798;2022-07-22T13:24:18;98652.66;;;30.09;47.04
68669;BME280;55652;49.454;7.798;2022-07-22T13:26:45;98659.28;;;30.07;46.92
68669;BME280;55652;49.454;7.798;2022-07-22T13:29:10;98657.03;;;30.10;46.87
68669;BME280;55652;49.454;7.798;2022-07-22T13:31:38;98653.53;;;30.18;45.73
68669;BME280;55652;49.454;7.798;2022-07-22T13:34:04;98659.84;;;30.18;45.41
68669;BME280;55652;49.454;7.798;2022-07-22T16:20:56;98577.88;;;28.72;48.46
68669;BME280;55652;49.454;7.798;2022-07-22T16:23:22;98576.00;;;28.86;50.65
68669;BME280;55652;49.454;7.798;2022-07-22T16:25:48;98574.06;;;29.01;49.23
68669;BME280;55652;49.454;7.798;2022-07-22T16:28:13;98575.53;;;29.12;48.70
68669;BME280;55652;49.454;7.798;2022-07-22T16:30:38;98579.75;;;29.23;48.79
68669;BME280;55652;49.454;7.798;2022-07-22T16:33:03;98582.28;;;29.33;49.84
68669;BME280;55652;49.454;7.798;2022-07-22T16:35:29;98593.41;;;29.42;49.53
68669;BME280;55652;49.454;7.798;2022-07-22T16:37:54;98589.41;;;29.48;48.59
68669;BME280;55652;49.454;7.798;2022-07-22T16:40:20;98589.50;;;29.57;47.53
68669;BME280;55652;49.454;7.798;2022-07-22T16:42:45;98585.53;;;29.63;47.50
68669;BME280;55652;49.454;7.798;2022-07-22T16:45:10;98582.56;;;29.73;47.59
68669;BME280;55652;49.454;7.798;2022-07-22T16:47:36;98581.25;;;29.84;46.83
68669;BME280;55652;49.454;7.798;2022-07-22T16:50:01;98574.38;;;29.96;46.95
68669;BME280;55652;49.454;7.798;2022-07-22T16:52:26;98576.00;;;29.97;47.20
68669;BME280;55652;49.454;7.798;2022-07-22T16:54:52;98578.63;;;30.02;47.15
68669;BME280;55652;49.454;7.798;2022-07-22T16:57:20;98592.31;;;30.07;47.76
68669;BME280;55652;49.454;7.798;2022-07-22T16:59:45;98583.50;;;30.19;47.08
68669;BME280;55652;49.454;7.798;2022-07-22T17:02:10;98590.22;;;30.26;46.66
68669;BME280;55652;49.454;7.798;2022-07-22T20:02:09;98577.53;;;28.92;49.60
68669;BME280;55652;49.454;7.798;2022-07-22T20:04:35;98580.31;;;29.06;48.59
